Time;durP1;ratioP1;P1;durP2;ratioP2;P2;SDS_P1;SDS_P2;PMS_P1;PMS_P2;Temp;Humidity;BMP_temperature;BMP_pressure;BME280_temperature;BME280_humidity;BME280_pressure;Samples;Min_cycle;Max_cycle;Signal;HPM_P1;HPM_P2
2023/08/14 00:00:35;;;;;;;6.47;2.08;;;18.90;89.30;;;;;;5085696;28;20457;-70
2023/08/14 00:03:02;;;;;;;4.57;2.40;;;18.80;88.90;;;;;;5084196;28;20907;-70
2023/08/14 00:05:29;;;;;;;4.55;2.45;;;18.80;89.70;;;;;;5076107;28;20776;-70
2023/08/14 00:07:55;;;;;;;4.43;2.70;;;18.80;91.00;;;;;;5071271;28;20507;-70
2023/08/14 00:10:23;;;;;;;5.72;2.60;;;18.80;91.40;;;;;;5074372;28;20511;-70
2023/08/14 00:12:50;;;;;;;4.78;2.53;;;18.90;91.10;;;;;;5071939;28;20917;-70
2023/08/14 00:15:17;;;;;;;3.70;2.20;;;18.90;91.40;;;;;;5072313;28;20450;-70
2023/08/14 00:17:43;;;;;;;4.45;2.40;;;18.90;90.60;;;;;;5082603;28;20464;-70
2023/08/14 00:20:11;;;;;;;4.72;2.60;;;18.90;91.40;;;;;;5082054;28;20920;-70
2023/08/14 00:22:38;;;;;;;3.85;2.30;;;18.80;91.90;;;;;;5084536;28;20417;-71
2023/08/14 00:25:05;;;;;;;4.70;2.20;;;18.90;92.20;;;;;;5083275;28;20903;-70
2023/08/14 00:27:33;;;;;;;3.83;2.33;;;18.80;91.20;;;;;;5083655;28;20445;-70
2023/08/14 00:30:01;;;;;;;4.78;2.20;;;18.80;91.60;;;;;;5076641;28;20410;-70
2023/08/14 00:32:28;;;;;;;3.83;2.50;;;18.80;91.90;;;;;;5081705;28;20564;-70
2023/08/14 00:34:54;;;;;;;4.28;2.60;;;18.80;91.90;;;;;;5071727;28;20436;-70
2023/08/14 00:37:23;;;;;;;5.60;3.03;;;18.70;92.30;;;;;;5080732;28;20792;-70
2023/08/14 00:39:49;;;;;;;3.95;2.53;;;18.70;92.70;;;;;;5080212;28;20512;-70
2023/08/14 00:42:16;;;;;;;5.28;3.10;;;18.70;93.00;;;;;;5082408;28;20432;-70
2023/08/14 00:44:44;;;;;;;5.63;3.03;;;18.70;93.10;;;;;;5084270;28;20414;-71
2023/08/14 00:47:13;;;;;;;5.32;3.00;;;18.70;92.50;;;;;;5081819;28;20429;-70
2023/08/14 00:49:40;;;;;;;5.78;2.70;;;18.60;92.30;;;;;;5074384;28;20423;-70
2023/08/14 00:52:07;;;;;;;3.90;2.45;;;18.60;92.40;;;;;;5079034;28;20429;-70
2023/08/14 00:54:33;;;;;;;4.82;3.00;;;18.60;92.20;;;;;;5082719;28;20398;-70
2023/08/14 00:57:00;;;;;;;4.32;2.40;;;18.60;92.50;;;;;;5084421;28;20444;-70
2023/08/14 00:59:29;;;;;;;5.68;2.60;;;18.50;92.50;;;;;;5080545;28;20422;-70
2023/08/14 01:01:57;;;;;;;3.75;2.50;;;18.50;92.50;;;;;;5082125;28;20433;-70
2023/08/14 01:04:24;;;;;;;4.22;2.55;;;18.50;92.90;;;;;;5072703;28;20442;-70
2023/08/14 01:06:51;;;;;;;7.50;2.70;;;18.40;92.70;;;;;;5074811;28;20430;-70
2023/08/14 01:09:18;;;;;;;4.57;2.40;;;18.30;93.20;;;;;;5076031;28;20900;-70
2023/08/14 01:11:57;;;;;;;4.85;2.50;;;18.30;92.50;;;;;;5082345;28;20525;-70
2023/08/14 01:14:27;;;;;;;5.60;2.78;;;18.20;93.60;;;;;;5082578;28;20485;-70
2023/08/14 01:17:00;;;;;;;3.95;2.33;;;18.20;94.00;;;;;;5077590;28;20903;-70
2023/08/14 01:19:37;;;;;;;4.03;2.53;;;18.20;93.70;;;;;;5080433;28;20491;-70
2023/08/14 01:22:05;;;;;;;4.15;2.72;;;18.10;94.70;;;;;;5072691;28;20800;-70
2023/08/14 01:24:46;;;;;;;5.30;2.70;;;18.10;95.00;;;;;;5072338;28;20681;-70
2023/08/14 01:27:15;;;;;;;4.25;2.42;;;18.00;95.20;;;;;;5084579;28;20417;-71
2023/08/14 01:29:41;;;;;;;4.07;2.55;;;18.10;94.90;;;;;;5085380;28;20425;-70
2023/08/14 01:32:08;;;;;;;4.25;2.50;;;18.00;95.00;;;;;;5104382;22;20426;-71
2023/08/14 01:34:35;;;;;;;3.80;2.40;;;17.90;94.40;;;;;;5084795;28;20418;-70
2023/08/14 01:37:12;;;;;;;4.68;2.75;;;17.90;94.40;;;;;;5072932;28;20434;-71
2023/08/14 01:39:44;;;;;;;7.85;3.10;;;17.90;94.10;;;;;;5090768;28;20769;-70
2023/08/14 01:42:18;;;;;;;4.45;2.50;;;17.80;94.10;;;;;;5089909;28;20423;-70
2023/08/14 01:44:49;;;;;;;4.80;2.87;;;17.70;94.60;;;;;;5067695;28;20428;-70
2023/08/14 01:47:17;;;;;;;3.75;2.47;;;17.70;94.60;;;;;;5069235;28;20439;-71
2023/08/14 01:49:44;;;;;;;4.68;2.53;;;17.70;95.10;;;;;;5069568;28;20493;-71
2023/08/14 01:52:11;;;;;;;4.32;2.72;;;17.70;96.00;;;;;;5067744;28;20428;-70
2023/08/14 01:54:38;;;;;;;5.70;3.60;;;17.70;96.40;;;;;;5068436;28;20932;-71
2023/08/14 01:57:05;;;;;;;5.05;3.30;;;17.70;95.90;;;;;;5072011;28;20435;-71
2023/08/14 01:59:42;;;;;;;6.32;3.40;;;17.70;95.60;;;;;;5072886;28;20432;-70
2023/08/14 02:02:09;;;;;;;4.38;3.90;;;17.70;95.80;;;;;;5068525;28;20432;-70
2023/08/14 02:04:36;;;;;;;5.78;3.60;;;17.70;95.40;;;;;;5068872;28;20427;-71
2023/08/14 02:07:03;;;;;;;6.07;3.28;;;17.70;95.80;;;;;;5073472;28;20434;-71
2023/08/14 02:09:29;;;;;;;6.35;3.45;;;17.70;95.70;;;;;;5072470;28;20948;-70
2023/08/14 02:11:56;;;;;;;6.38;3.60;;;17.60;95.80;;;;;;5063696;28;20435;-71
2023/08/14 02:14:23;;;;;;;7.13;3.20;;;17.50;94.40;;;;;;5071521;28;20414;-71
2023/08/14 02:16:51;;;;;;;4.45;3.28;;;17.50;94.80;;;;;;5070312;28;20431;-71
2023/08/14 02:19:17;;;;;;;5.18;3.45;;;17.40;94.40;;;;;;5075020;28;20929;-71
2023/08/14 02:21:44;;;;;;;5.05;3.25;;;17.40;94.80;;;;;;5071085;28;20419;-71
2023/08/14 02:24:11;;;;;;;5.40;3.90;;;17.30;94.70;;;;;;5071426;28;20427;-71
2023/08/14 02:26:38;;;;;;;5.95;3.88;;;17.30;95.40;;;;;;5078237;28;20435;-70
2023/08/14 02:29:04;;;;;;;5.53;3.73;;;17.30;96.30;;;;;;5074296;28;20801;-70
2023/08/14 02:31:31;;;;;;;4.75;3.83;;;17.30;96.40;;;;;;5068968;28;20913;-71
2023/08/14 02:34:00;;;;;;;5.70;3.70;;;17.40;96.80;;;;;;5073947;28;20435;-71
2023/08/14 02:36:28;;;;;;;7.15;3.60;;;17.40;96.00;;;;;;5078316;28;20433;-70
2023/08/14 02:38:55;;;;;;;4.00;3.40;;;17.40;96.30;;;;;;5072316;28;20424;-71
2023/08/14 02:41:23;;;;;;;5.55;3.40;;;17.40;97.10;;;;;;5069603;28;20428;-70
2023/08/14 02:43:49;;;;;;;7.05;3.85;;;17.40;97.70;;;;;;5070916;28;20407;-71
2023/08/14 02:46:16;;;;;;;4.85;3.80;;;17.40;98.00;;;;;;5074881;28;20431;-70
2023/08/14 02:48:45;;;;;;;5.75;3.70;;;17.30;98.70;;;;;;5074573;28;20431;-70
2023/08/14 02:51:15;;;;;;;4.07;3.40;;;17.40;99.60;;;;;;5073735;28;20490;-71
2023/08/14 02:53:41;;;;;;;6.80;3.70;;;17.40;99.90;;;;;;5070385;28;21004;-70
2023/08/14 02:56:08;;;;;;;5.78;3.92;;;17.30;99.90;;;;;;5074391;28;20429;-70
2023/08/14 02:58:35;;;;;;;7.28;3.80;;;17.30;99.90;;;;;;5081124;28;20443;-70
2023/08/14 03:01:04;;;;;;;4.60;3.72;;;17.30;99.90;;;;;;5072044;28;21043;-71
2023/08/14 03:03:30;;;;;;;6.45;3.90;;;17.20;99.90;;;;;;5070379;28;20427;-71
2023/08/14 03:05:59;;;;;;;5.97;3.90;;;17.20;99.90;;;;;;5076701;28;20460;-70
2023/08/14 03:08:27;;;;;;;6.03;4.00;;;17.10;99.90;;;;;;5073316;28;20904;-71
2023/08/14 03:10:54;;;;;;;6.25;4.22;;;17.10;99.90;;;;;;5076223;28;20996;-70
2023/08/14 03:13:20;;;;;;;7.45;4.70;;;17.10;99.90;;;;;;5071234;28;20432;-70
2023/08/14 03:15:47;;;;;;;6.82;4.10;;;17.10;99.90;;;;;;5069021;28;20716;-70
2023/08/14 03:18:14;;;;;;;7.57;3.80;;;17.00;99.90;;;;;;5072980;28;20870;-71
2023/08/14 03:20:40;;;;;;;6.07;3.83;;;17.00;99.90;;;;;;5070186;28;20458;-71
2023/08/14 03:23:06;;;;;;;5.97;3.80;;;17.00;99.90;;;;;;5066350;28;20443;-70
2023/08/14 03:25:34;;;;;;;5.53;3.83;;;17.00;99.90;;;;;;5069880;28;20825;-70
2023/08/14 03:28:01;;;;;;;4.43;3.90;;;17.00;99.90;;;;;;5075422;28;20921;-70
2023/08/14 03:30:28;;;;;;;6.57;3.50;;;16.90;99.90;;;;;;5065370;28;20442;-70
2023/08/14 03:32:54;;;;;;;7.03;4.20;;;16.90;99.90;;;;;;5069782;28;20892;-71
2023/08/14 03:35:21;;;;;;;6.85;3.60;;;16.90;99.90;;;;;;5068572;28;20433;-70
2023/08/14 03:37:48;;;;;;;7.80;4.15;;;16.90;99.90;;;;;;5069810;28;20404;-70
2023/08/14 03:40:14;;;;;;;6.10;3.85;;;16.90;99.90;;;;;;5068081;28;20857;-70
2023/08/14 03:42:42;;;;;;;4.82;4.10;;;16.90;99.90;;;;;;5077314;28;20440;-70
2023/08/14 03:45:10;;;;;;;6.00;4.10;;;16.90;99.90;;;;;;5084096;28;20425;-71
2023/08/14 03:47:37;;;;;;;7.07;3.60;;;16.80;99.90;;;;;;5077884;28;20456;-70
2023/08/14 03:50:04;;;;;;;4.93;3.50;;;16.80;99.90;;;;;;5077723;28;20505;-70
2023/08/14 03:52:31;;;;;;;7.68;4.00;;;16.80;99.90;;;;;;5067639;28;20440;-70
2023/08/14 03:54:58;;;;;;;4.80;3.70;;;16.80;99.90;;;;;;5070084;28;20431;-70
2023/08/14 03:57:24;;;;;;;5.00;3.80;;;16.80;99.90;;;;;;5074033;28;20439;-70
2023/08/14 03:59:53;;;;;;;6.28;4.00;;;16.80;99.90;;;;;;5068085;28;20432;-70
2023/08/14 04:02:19;;;;;;;7.47;4.20;;;16.70;99.90;;;;;;5066795;28;20438;-70
2023/08/14 04:04:46;;;;;;;6.15;4.30;;;16.70;99.90;;;;;;5069263;28;20430;-70
2023/08/14 04:07:13;;;;;;;6.80;3.80;;;16.60;99.90;;;;;;5071572;28;20427;-70
2023/08/14 04:09:39;;;;;;;5.80;3.90;;;16.50;99.90;;;;;;5069070;28;20495;-70
2023/08/14 04:12:07;;;;;;;6.55;3.90;;;16.50;99.90;;;;;;5066623;28;20434;-71
2023/08/14 04:14:34;;;;;;;6.28;4.20;;;16.50;99.90;;;;;;5068034;28;20481;-71
2023/08/14 04:17:02;;;;;;;4.35;3.95;;;16.40;99.90;;;;;;5066229;28;20435;-70
2023/08/14 04:19:29;;;;;;;5.35;4.00;;;16.40;99.90;;;;;;5061756;28;20403;-71
2023/08/14 04:21:56;;;;;;;6.70;3.90;;;16.40;99.90;;;;;;5062420;28;20506;-70
2023/08/14 04:24:22;;;;;;;5.90;4.30;;;16.30;99.90;;;;;;5062748;28;20419;-70
2023/08/14 04:26:49;;;;;;;5.67;3.90;;;16.30;99.90;;;;;;5070548;28;20909;-69
2023/08/14 04:29:16;;;;;;;5.82;3.95;;;16.30;99.90;;;;;;5061364;28;20432;-69
2023/08/14 04:31:43;;;;;;;6.30;4.10;;;16.30;99.90;;;;;;5062242;28;20504;-70
2023/08/14 04:34:11;;;;;;;5.53;4.00;;;16.20;99.90;;;;;;5061259;28;20435;-69
2023/08/14 04:36:38;;;;;;;5.37;4.00;;;16.20;99.90;;;;;;5061591;28;20556;-70
2023/08/14 04:39:07;;;;;;;4.22;3.65;;;16.30;99.90;;;;;;5063868;28;20446;-70
2023/08/14 04:41:34;;;;;;;6.20;4.60;;;16.30;99.90;;;;;;5060179;28;20463;-70
2023/08/14 04:44:01;;;;;;;6.75;4.10;;;16.30;99.90;;;;;;5063152;28;20439;-69
2023/08/14 04:46:33;;;;;;;4.90;3.90;;;16.30;99.90;;;;;;5059914;28;20432;-69
2023/08/14 04:49:00;;;;;;;5.25;3.88;;;16.30;99.90;;;;;;5061383;28;20442;-69
2023/08/14 04:51:29;;;;;;;5.77;4.37;;;16.30;99.90;;;;;;5053727;28;20429;-69
2023/08/14 04:53:57;;;;;;;5.95;4.10;;;16.40;99.90;;;;;;5063474;28;20411;-71
2023/08/14 04:56:24;;;;;;;7.20;4.10;;;16.40;99.90;;;;;;5061994;28;20399;-69
2023/08/14 04:58:51;;;;;;;7.15;5.00;;;16.40;99.90;;;;;;5070071;28;20446;-69
2023/08/14 05:01:17;;;;;;;5.00;3.90;;;16.40;99.90;;;;;;5068150;28;20428;-70
2023/08/14 05:03:44;;;;;;;5.00;3.73;;;16.40;99.90;;;;;;5063333;28;20429;-70
2023/08/14 05:06:11;;;;;;;6.50;4.40;;;16.40;99.90;;;;;;5066005;28;20431;-70
2023/08/14 05:08:39;;;;;;;4.90;4.10;;;16.40;99.90;;;;;;5061345;28;21001;-70
2023/08/14 05:11:06;;;;;;;5.63;4.00;;;16.40;99.90;;;;;;5067369;28;20942;-71
2023/08/14 05:13:33;;;;;;;7.47;5.05;;;16.40;99.90;;;;;;5069506;28;20447;-70
2023/08/14 05:16:00;;;;;;;5.18;3.95;;;16.40;99.90;;;;;;5077551;28;20429;-71
2023/08/14 05:18:27;;;;;;;8.25;4.75;;;16.50;99.90;;;;;;5071232;28;20419;-70
2023/08/14 05:20:54;;;;;;;6.00;4.10;;;16.40;99.90;;;;;;5070511;28;20430;-69
2023/08/14 05:23:21;;;;;;;5.27;4.47;;;16.40;99.90;;;;;;5070802;28;21019;-70
2023/08/14 05:25:49;;;;;;;7.03;4.40;;;16.40;99.90;;;;;;5072559;28;20433;-70
2023/08/14 05:28:16;;;;;;;6.85;5.38;;;16.50;99.90;;;;;;5069774;28;20431;-70
2023/08/14 05:30:44;;;;;;;10.90;5.10;;;16.40;99.90;;;;;;5067327;28;20424;-70
2023/08/14 05:33:11;;;;;;;5.97;4.70;;;16.40;99.90;;;;;;5068635;28;20767;-70
2023/08/14 05:35:38;;;;;;;7.03;5.00;;;16.40;99.90;;;;;;5067227;28;20424;-71
2023/08/14 05:38:05;;;;;;;6.13;4.73;;;16.40;99.90;;;;;;5066763;28;20411;-72
2023/08/14 05:40:32;;;;;;;6.90;4.60;;;16.40;99.90;;;;;;5067043;28;20899;-71
2023/08/14 05:43:07;;;;;;;7.88;4.70;;;16.40;99.90;;;;;;5067110;28;20431;-72
2023/08/14 05:45:35;;;;;;;7.00;4.38;;;16.40;99.90;;;;;;5068922;28;20420;-72
2023/08/14 05:48:03;;;;;;;6.70;4.35;;;16.40;99.90;;;;;;5071229;28;20421;-72
2023/08/14 05:50:30;;;;;;;7.95;4.30;;;16.50;99.90;;;;;;5070457;28;20438;-71
2023/08/14 05:52:59;;;;;;;5.93;4.18;;;16.60;99.90;;;;;;5068122;28;20428;-71
2023/08/14 05:55:26;;;;;;;4.80;3.40;;;16.60;99.90;;;;;;5072216;28;20433;-71
2023/08/14 05:57:53;;;;;;;5.60;3.70;;;16.70;99.90;;;;;;5075100;28;20443;-71
2023/08/14 06:00:21;;;;;;;6.30;3.50;;;16.80;99.90;;;;;;5068380;28;20749;-71
2023/08/14 06:02:48;;;;;;;5.30;3.70;;;16.90;99.90;;;;;;5072675;28;20443;-73
2023/08/14 06:05:15;;;;;;;4.80;3.50;;;17.00;99.90;;;;;;5075265;28;20426;-72
2023/08/14 06:07:41;;;;;;;7.22;3.90;;;17.00;99.90;;;;;;5068997;28;20461;-71
2023/08/14 06:10:09;;;;;;;3.95;3.55;;;17.10;99.90;;;;;;5069226;28;20435;-72
2023/08/14 06:12:36;;;;;;;5.03;3.60;;;17.10;99.90;;;;;;5069398;28;20438;-67
2023/08/14 06:15:03;;;;;;;5.40;3.60;;;17.20;99.90;;;;;;5064070;28;20430;-63
2023/08/14 06:17:32;;;;;;;5.30;3.40;;;17.20;99.90;;;;;;5069692;28;20431;-63
2023/08/14 06:19:59;;;;;;;4.10;3.28;;;17.30;99.90;;;;;;5079264;28;20443;-64
2023/08/14 06:22:25;;;;;;;5.45;3.25;;;17.40;99.90;;;;;;5069146;28;20419;-68
2023/08/14 06:24:52;;;;;;;4.20;3.00;;;17.40;99.90;;;;;;5070569;28;20689;-63
2023/08/14 06:27:19;;;;;;;4.60;2.80;;;17.40;99.90;;;;;;5070404;28;20428;-64
2023/08/14 06:29:46;;;;;;;6.57;3.28;;;17.50;99.90;;;;;;5069515;28;20423;-63
2023/08/14 06:32:13;;;;;;;6.10;3.10;;;17.60;99.90;;;;;;5076172;28;20541;-63
2023/08/14 06:34:41;;;;;;;5.28;3.00;;;17.60;99.90;;;;;;5065621;28;20795;-64
2023/08/14 06:37:08;;;;;;;4.15;2.90;;;17.60;99.90;;;;;;5071501;28;20872;-63
2023/08/14 06:39:35;;;;;;;4.03;2.90;;;17.70;99.90;;;;;;5069164;28;20439;-64
2023/08/14 06:42:01;;;;;;;4.28;2.95;;;17.70;99.90;;;;;;5071275;28;20845;-64
2023/08/14 06:44:28;;;;;;;5.10;2.85;;;17.70;99.90;;;;;;5069441;28;20701;-63
2023/08/14 06:46:55;;;;;;;6.82;3.10;;;17.90;99.90;;;;;;5071838;28;20415;-65
2023/08/14 06:49:21;;;;;;;3.88;2.67;;;18.00;99.90;;;;;;5076449;28;20714;-66
2023/08/14 06:51:49;;;;;;;4.10;2.80;;;18.10;99.30;;;;;;5069368;28;20433;-63
2023/08/14 06:54:16;;;;;;;3.35;2.50;;;18.20;98.90;;;;;;5069828;28;20922;-64
2023/08/14 06:56:43;;;;;;;4.10;3.00;;;18.30;98.40;;;;;;5069744;28;20427;-63
2023/08/14 06:59:10;;;;;;;3.40;2.78;;;18.30;98.70;;;;;;5070191;28;20451;-70
2023/08/14 07:01:37;;;;;;;4.77;2.77;;;18.40;98.40;;;;;;5069735;28;20410;-71
2023/08/14 07:04:04;;;;;;;5.63;3.10;;;18.40;98.50;;;;;;5067282;28;20440;-65
2023/08/14 07:06:31;;;;;;;5.30;2.60;;;18.40;98.20;;;;;;5070656;28;20416;-68
2023/08/14 07:08:59;;;;;;;4.50;2.42;;;18.50;98.30;;;;;;5070752;28;20438;-64
2023/08/14 07:11:26;;;;;;;3.60;2.40;;;18.60;98.20;;;;;;5069084;28;20870;-66
2023/08/14 07:13:52;;;;;;;4.00;2.50;;;18.70;98.70;;;;;;5068001;28;20423;-64
2023/08/14 07:16:19;;;;;;;3.30;2.60;;;18.90;97.30;;;;;;5071464;28;20435;-67
2023/08/14 07:18:46;;;;;;;4.23;2.50;;;19.00;96.50;;;;;;5073523;28;20438;-63
2023/08/14 07:21:13;;;;;;;3.92;2.70;;;19.10;96.10;;;;;;5072893;28;20430;-65
2023/08/14 07:23:39;;;;;;;9.32;2.80;;;19.20;95.50;;;;;;5067744;28;20529;-64
2023/08/14 07:26:12;;;;;;;4.90;2.50;;;19.30;95.10;;;;;;5073745;28;20431;-63
2023/08/14 07:28:39;;;;;;;2.70;2.30;;;19.40;94.60;;;;;;5071594;28;20439;-62
2023/08/14 07:31:06;;;;;;;3.63;2.40;;;19.40;94.60;;;;;;5069886;28;20994;-71
2023/08/14 07:33:32;;;;;;;4.97;2.33;;;19.50;94.70;;;;;;5094516;22;20429;-71
2023/08/14 07:36:00;;;;;;;4.73;2.27;;;19.50;94.00;;;;;;5079964;28;20512;-74
2023/08/14 07:38:27;;;;;;;5.57;2.60;;;19.50;93.70;;;;;;5084451;28;20505;-74
2023/08/14 07:40:54;;;;;;;3.75;2.80;;;19.60;94.00;;;;;;5084007;28;20436;-73
2023/08/14 07:43:22;;;;;;;11.10;2.60;;;19.60;93.70;;;;;;5089114;28;20428;-72
2023/08/14 07:45:49;;;;;;;4.88;2.10;;;19.60;94.30;;;;;;5082550;28;20441;-73
2023/08/14 07:48:16;;;;;;;4.43;2.53;;;19.80;93.70;;;;;;5081164;28;20418;-70
2023/08/14 07:50:43;;;;;;;3.80;2.45;;;19.90;93.70;;;;;;5078489;28;20430;-71
2023/08/14 07:53:10;;;;;;;4.60;2.40;;;19.90;93.50;;;;;;5089292;28;20431;-70
2023/08/14 07:55:37;;;;;;;3.30;2.40;;;20.00;93.20;;;;;;5080571;28;20519;-72
2023/08/14 07:58:04;;;;;;;3.80;2.33;;;20.10;93.10;;;;;;5087385;28;20995;-72
2023/08/14 08:00:32;;;;;;;5.20;2.00;;;20.20;93.00;;;;;;5080153;28;20892;-72
2023/08/14 08:02:59;;;;;;;4.00;2.30;;;20.40;92.70;;;;;;5078918;28;21151;-73
2023/08/14 08:05:26;;;;;;;2.88;2.25;;;20.50;91.40;;;;;;5074836;28;20429;-72
2023/08/14 08:07:52;;;;;;;4.20;2.15;;;20.40;91.60;;;;;;5080134;28;20454;-72
2023/08/14 08:10:19;;;;;;;5.00;2.10;;;20.40;91.60;;;;;;5080457;28;20424;-74
2023/08/14 08:12:46;;;;;;;3.90;2.20;;;20.50;91.90;;;;;;5080851;28;20434;-71
2023/08/14 08:15:13;;;;;;;6.15;4.85;;;20.50;90.60;;;;;;5082528;28;20452;-72
2023/08/14 08:17:41;;;;;;;4.63;2.38;;;20.60;90.20;;;;;;5081215;28;20434;-73
2023/08/14 08:20:09;;;;;;;2.95;1.67;;;20.80;88.90;;;;;;5077058;28;20445;-74
2023/08/14 08:22:35;;;;;;;3.70;1.80;;;21.00;88.60;;;;;;5083118;28;20880;-75
2023/08/14 08:25:03;;;;;;;5.35;2.17;;;21.30;87.70;;;;;;5081015;28;20524;-73
2023/08/14 08:27:29;;;;;;;3.53;2.00;;;21.50;86.90;;;;;;5076845;28;20463;-75
2023/08/14 08:29:56;;;;;;;3.42;1.92;;;21.80;85.40;;;;;;5088121;28;20500;-73
2023/08/14 08:32:23;;;;;;;3.30;2.08;;;22.10;84.70;;;;;;5076028;28;20433;-69
2023/08/14 08:34:52;;;;;;;3.63;1.98;;;22.40;82.50;;;;;;5077712;28;20425;-69
2023/08/14 08:37:19;;;;;;;3.60;1.80;;;22.50;80.30;;;;;;5079391;28;20888;-69
2023/08/14 08:39:46;;;;;;;5.38;2.00;;;22.60;79.10;;;;;;5075099;28;20461;-71
2023/08/14 08:42:13;;;;;;;2.63;1.75;;;22.70;76.80;;;;;;5081725;28;20482;-74
2023/08/14 08:44:45;;;;;;;3.58;2.10;;;22.70;76.40;;;;;;5080007;28;20892;-71
2023/08/14 08:47:15;;;;;;;3.95;1.80;;;22.60;79.00;;;;;;5080864;28;20444;-71
2023/08/14 08:49:42;;;;;;;4.07;2.20;;;22.80;79.60;;;;;;5082301;28;20433;-69
2023/08/14 08:52:11;;;;;;;4.55;1.92;;;22.90;79.20;;;;;;5079714;28;20428;-71
2023/08/14 08:54:38;;;;;;;4.00;1.73;;;23.00;78.80;;;;;;5083442;28;20438;-70
2023/08/14 08:57:05;;;;;;;4.95;2.22;;;23.00;78.90;;;;;;5083630;28;20432;-70
2023/08/14 08:59:33;;;;;;;4.38;1.90;;;22.90;78.50;;;;;;5083819;28;20672;-70
2023/08/14 09:02:00;;;;;;;2.67;1.80;;;23.00;77.10;;;;;;5079366;28;20830;-72
2023/08/14 09:04:27;;;;;;;5.72;2.00;;;23.10;77.70;;;;;;5074457;28;20425;-70
2023/08/14 09:06:54;;;;;;;4.50;2.20;;;23.20;77.80;;;;;;5081208;28;20432;-71
2023/08/14 09:09:23;;;;;;;4.20;2.20;;;23.30;76.90;;;;;;5077706;28;20451;-70
2023/08/14 09:11:49;;;;;;;4.93;2.22;;;23.40;78.00;;;;;;5082908;28;20433;-71
2023/08/14 09:14:17;;;;;;;4.28;2.10;;;23.40;76.40;;;;;;5081413;28;20433;-70
2023/08/14 09:16:45;;;;;;;4.05;2.20;;;23.40;77.00;;;;;;5073715;28;20431;-71
2023/08/14 09:19:14;;;;;;;4.20;1.90;;;23.30;78.00;;;;;;5078938;28;20571;-70
2023/08/14 09:21:43;;;;;;;4.80;2.00;;;23.10;77.80;;;;;;5083938;28;20922;-71
2023/08/14 09:24:12;;;;;;;3.50;2.00;;;23.10;79.60;;;;;;5081930;28;20532;-71
2023/08/14 09:26:42;;;;;;;3.70;1.90;;;23.10;79.20;;;;;;5081171;28;20453;-71
2023/08/14 09:29:09;;;;;;;3.85;1.88;;;23.10;79.10;;;;;;5086621;28;20422;-69
2023/08/14 09:31:36;;;;;;;5.00;2.35;;;23.10;78.90;;;;;;5080142;28;20425;-70
2023/08/14 09:34:03;;;;;;;3.95;2.10;;;23.10;79.60;;;;;;5084039;28;20433;-70
2023/08/14 09:36:34;;;;;;;3.75;2.00;;;23.20;77.90;;;;;;5086759;28;20428;-70
2023/08/14 09:39:01;;;;;;;3.30;1.90;;;23.30;77.60;;;;;;5087508;28;20487;-70
2023/08/14 09:41:30;;;;;;;3.67;2.07;;;23.50;76.80;;;;;;5089551;28;20524;-70
2023/08/14 09:44:02;;;;;;;3.50;2.00;;;23.60;75.50;;;;;;5090391;28;20437;-71
2023/08/14 09:46:29;;;;;;;4.03;2.10;;;23.70;75.00;;;;;;5084399;28;20438;-70
2023/08/14 09:48:56;;;;;;;3.87;2.20;;;23.70;74.70;;;;;;5086005;28;20485;-71
2023/08/14 09:51:23;;;;;;;3.60;1.88;;;23.60;75.80;;;;;;5087977;28;20516;-71
2023/08/14 09:53:54;;;;;;;4.90;2.10;;;23.50;76.60;;;;;;5086706;28;20436;-70
2023/08/14 09:56:21;;;;;;;5.32;2.00;;;23.50;76.10;;;;;;5081926;28;20444;-71
2023/08/14 09:58:48;;;;;;;3.38;2.15;;;23.70;76.70;;;;;;5088149;28;20433;-71
2023/08/14 10:01:18;;;;;;;4.00;2.05;;;23.60;74.10;;;;;;5083398;28;20838;-71
2023/08/14 10:03:49;;;;;;;4.55;2.08;;;23.60;74.60;;;;;;5086604;28;20461;-70
2023/08/14 10:06:17;;;;;;;2.83;1.70;;;23.50;75.20;;;;;;5091945;28;20508;-71
2023/08/14 10:08:45;;;;;;;4.47;1.80;;;23.50;73.90;;;;;;5084321;28;20739;-70
2023/08/14 10:11:14;;;;;;;3.30;1.93;;;23.40;75.40;;;;;;5081518;28;20543;-70
2023/08/14 10:13:46;;;;;;;3.00;2.20;;;23.60;74.60;;;;;;5084875;28;20440;-71
2023/08/14 10:16:17;;;;;;;4.68;2.08;;;23.90;73.80;;;;;;5079567;28;20424;-70
2023/08/14 10:18:47;;;;;;;4.57;2.20;;;24.10;73.80;;;;;;5084733;28;20450;-72
2023/08/14 10:21:16;;;;;;;3.65;1.70;;;24.50;73.00;;;;;;5083676;28;20492;-68
2023/08/14 10:23:45;;;;;;;3.10;2.10;;;24.90;71.50;;;;;;5086860;28;20441;-69
2023/08/14 10:26:13;;;;;;;3.50;1.70;;;25.20;70.30;;;;;;5083314;28;20714;-69
2023/08/14 10:28:40;;;;;;;4.22;1.90;;;25.30;69.10;;;;;;5087448;28;20942;-70
2023/08/14 10:31:09;;;;;;;2.60;1.67;;;25.40;68.20;;;;;;5077411;28;20891;-69
2023/08/14 10:33:37;;;;;;;3.65;1.65;;;25.30;67.90;;;;;;5078581;28;20451;-70
2023/08/14 10:36:06;;;;;;;3.67;1.55;;;25.40;67.00;;;;;;5090201;28;20707;-69
2023/08/14 10:38:41;;;;;;;2.95;2.10;;;25.50;66.40;;;;;;5087210;28;20432;-71
2023/08/14 10:41:10;;;;;;;4.55;2.10;;;25.70;65.40;;;;;;5082091;28;20424;-70
2023/08/14 10:43:37;;;;;;;2.97;2.00;;;25.90;65.30;;;;;;5082633;28;20863;-72
2023/08/14 10:46:09;;;;;;;4.07;2.00;;;26.20;64.70;;;;;;5084136;28;20884;-71
2023/08/14 10:48:36;;;;;;;4.00;1.80;;;26.50;61.20;;;;;;5084419;28;20904;-71
2023/08/14 10:51:03;;;;;;;3.10;1.70;;;26.70;60.30;;;;;;5084342;28;20420;-71
2023/08/14 10:53:32;;;;;;;3.58;2.00;;;26.90;58.40;;;;;;5088716;28;20598;-76
2023/08/14 10:55:59;;;;;;;2.53;1.60;;;27.00;57.70;;;;;;5084697;28;20484;-72
2023/08/14 10:58:47;;;;;;;3.40;1.85;;;27.10;55.80;;;;;;5084371;28;20444;-71
2023/08/14 11:01:14;;;;;;;3.03;1.77;;;27.30;54.40;;;;;;5079134;28;20486;-74
2023/08/14 11:03:58;;;;;;;3.75;1.80;;;27.30;53.90;;;;;;5071059;28;20426;-75
2023/08/14 11:06:26;;;;;;;2.85;1.95;;;27.20;54.00;;;;;;5083988;28;20511;-74
2023/08/14 11:09:00;;;;;;;3.90;1.80;;;27.10;54.90;;;;;;5084706;28;20460;-75
2023/08/14 11:11:27;;;;;;;3.65;1.58;;;27.00;56.60;;;;;;5080626;28;20483;-74
2023/08/14 11:13:54;;;;;;;4.47;1.60;;;26.70;56.40;;;;;;5083538;28;20498;-74
2023/08/14 11:16:20;;;;;;;2.90;1.90;;;26.60;58.40;;;;;;5083685;28;20437;-76
2023/08/14 11:18:48;;;;;;;3.38;2.10;;;26.30;59.30;;;;;;5084235;28;20438;-73
2023/08/14 11:21:14;;;;;;;3.22;2.10;;;26.00;59.70;;;;;;5083118;28;20450;-74
2023/08/14 11:23:41;;;;;;;4.60;2.47;;;25.80;61.90;;;;;;5089198;28;20422;-73
2023/08/14 11:26:09;;;;;;;2.97;2.10;;;25.70;61.20;;;;;;5085026;28;20431;-72
2023/08/14 11:28:36;;;;;;;4.25;2.20;;;25.70;62.50;;;;;;5085386;28;20933;-74
2023/08/14 11:31:03;;;;;;;3.00;2.10;;;25.70;64.10;;;;;;5076959;28;20776;-73
2023/08/14 11:33:32;;;;;;;3.30;2.10;;;25.70;63.50;;;;;;5088816;28;20520;-74
2023/08/14 11:35:58;;;;;;;4.30;2.20;;;25.40;63.80;;;;;;5084343;28;20566;-73
2023/08/14 11:38:25;;;;;;;3.28;1.90;;;25.20;65.30;;;;;;5083773;28;20440;-73
2023/08/14 11:40:52;;;;;;;6.25;2.35;;;25.10;66.40;;;;;;5082877;28;20991;-69
2023/08/14 11:43:21;;;;;;;3.65;1.90;;;25.00;66.50;;;;;;5082158;28;20745;-70
2023/08/14 11:45:48;;;;;;;3.00;2.00;;;24.90;67.60;;;;;;5082974;28;20439;-69
2023/08/14 11:48:15;;;;;;;5.32;2.40;;;24.90;68.90;;;;;;5080086;28;20507;-72
2023/08/14 11:50:47;;;;;;;5.00;2.40;;;25.00;71.20;;;;;;5078201;28;20453;-71
2023/08/14 11:53:13;;;;;;;3.65;2.13;;;25.10;70.10;;;;;;5079382;28;20497;-71
2023/08/14 11:55:40;;;;;;;4.20;2.13;;;25.20;73.90;;;;;;5076527;28;20430;-71
2023/08/14 11:58:07;;;;;;;3.80;2.38;;;25.30;75.20;;;;;;5084340;28;20443;-70
2023/08/14 12:00:35;;;;;;;3.20;1.90;;;25.30;75.20;;;;;;5080016;28;20429;-70
2023/08/14 12:03:02;;;;;;;4.30;2.05;;;25.30;74.80;;;;;;5078786;28;20457;-71
2023/08/14 12:05:29;;;;;;;4.20;2.20;;;25.40;74.80;;;;;;5079902;28;20653;-73
2023/08/14 12:08:00;;;;;;;5.20;2.07;;;25.40;74.70;;;;;;5083660;28;20444;-70
2023/08/14 12:10:31;;;;;;;3.30;1.92;;;25.20;74.80;;;;;;5089190;28;20899;-73
2023/08/14 12:12:58;;;;;;;4.25;2.30;;;25.00;80.40;;;;;;5083412;28;20436;-74
2023/08/14 12:15:25;;;;;;;3.60;2.30;;;24.90;86.20;;;;;;5071654;28;20445;-74
2023/08/14 12:17:53;;;;;;;3.13;2.00;;;24.90;85.60;;;;;;5077478;28;20433;-73
2023/08/14 12:20:22;;;;;;;3.40;2.10;;;25.00;83.90;;;;;;5078238;28;20445;-74
2023/08/14 12:22:48;;;;;;;3.33;2.08;;;25.40;80.80;;;;;;5077046;28;20443;-76
2023/08/14 12:25:18;;;;;;;3.10;1.93;;;25.70;76.60;;;;;;5077547;28;20421;-74
2023/08/14 12:27:45;;;;;;;3.05;1.80;;;26.10;75.50;;;;;;5078616;28;20428;-78
2023/08/14 12:30:13;;;;;;;2.78;1.90;;;26.50;74.30;;;;;;5072938;28;20448;-73
2023/08/14 12:32:47;;;;;;;4.07;1.90;;;26.60;72.80;;;;;;5073725;28;20434;-78
2023/08/14 12:35:15;;;;;;;3.28;1.90;;;26.80;72.80;;;;;;5078812;28;20920;-72
2023/08/14 12:37:42;;;;;;;3.70;1.70;;;26.90;71.30;;;;;;5080699;28;21512;-70
2023/08/14 12:40:10;;;;;;;4.40;2.10;;;26.90;71.50;;;;;;5076303;28;20430;-73
2023/08/14 12:42:37;;;;;;;4.03;2.00;;;26.80;71.40;;;;;;5083241;28;20477;-73
2023/08/14 12:45:05;;;;;;;3.00;1.80;;;26.70;72.10;;;;;;5079837;28;20452;-72
2023/08/14 12:47:32;;;;;;;3.80;2.20;;;26.50;72.80;;;;;;5083514;28;20535;-73
2023/08/14 12:49:59;;;;;;;3.93;2.23;;;26.30;73.70;;;;;;5079699;28;20430;-75